Time;durP1;ratioP1;P1;durP2;ratioP2;P2;SDS_P1;SDS_P2;PMS_P1;PMS_P2;Temp;Humidity;BMP_temperature;BMP_pressure;BME280_temperature;BME280_humidity;BME280_pressure;Samples;Min_cycle;Max_cycle;Signal;HPM_P1;HPM_P2
2022/03/12 00:01:06;;;;;;;9.80;6.13;;;10.10;70.00;;;;;;5040995;28;20118;-65
2022/03/12 00:03:32;;;;;;;9.00;5.93;;;10.10;72.70;;;;;;5044786;28;20044;-65
2022/03/12 00:06:00;;;;;;;14.75;6.72;;;10.10;72.10;;;;;;5048472;28;20056;-65
2022/03/12 00:08:34;;;;;;;14.18;6.47;;;10.10;71.50;;;;;;5035289;28;20132;-65
2022/03/12 00:11:00;;;;;;;13.68;5.88;;;10.10;70.80;;;;;;5039221;28;21047;-65
2022/03/12 00:13:26;;;;;;;9.75;5.18;;;10.10;70.20;;;;;;5040751;28;20509;-65
2022/03/12 00:15:51;;;;;;;11.43;5.70;;;10.10;69.90;;;;;;5032777;28;20082;-65
2022/03/12 00:18:20;;;;;;;8.88;6.32;;;10.10;70.70;;;;;;5045146;28;20041;-65
2022/03/12 00:20:48;;;;;;;13.02;6.28;;;10.00;70.10;;;;;;5028617;28;20049;-65
2022/03/12 00:23:16;;;;;;;12.10;6.53;;;10.00;71.10;;;;;;5042219;28;20049;-65
2022/03/12 00:25:43;;;;;;;12.90;6.72;;;10.00;71.10;;;;;;5041607;28;20623;-65
2022/03/12 00:28:08;;;;;;;10.75;5.72;;;10.00;72.60;;;;;;5044288;28;20052;-65
2022/03/12 00:30:35;;;;;;;13.95;7.20;;;10.00;71.40;;;;;;5042109;28;20041;-65
2022/03/12 00:33:01;;;;;;;13.75;6.10;;;10.00;69.70;;;;;;5048216;28;20049;-65
2022/03/12 00:35:26;;;;;;;14.98;6.28;;;10.00;70.00;;;;;;5046566;28;20451;-65
2022/03/12 00:37:52;;;;;;;13.55;6.18;;;10.00;70.20;;;;;;5032304;28;20111;-65
2022/03/12 00:40:20;;;;;;;9.95;6.43;;;10.00;70.50;;;;;;5043353;28;20056;-65
2022/03/12 00:42:45;;;;;;;9.30;5.55;;;10.00;70.10;;;;;;5041025;28;20489;-65
2022/03/12 00:45:12;;;;;;;10.07;5.97;;;9.90;70.50;;;;;;5037203;28;20131;-65
2022/03/12 00:47:38;;;;;;;12.27;6.25;;;9.90;70.70;;;;;;5032784;28;20052;-65
2022/03/12 00:50:04;;;;;;;8.43;6.05;;;9.80;71.10;;;;;;5038302;28;20565;-65
2022/03/12 00:52:30;;;;;;;12.95;6.15;;;9.80;71.00;;;;;;5044917;28;20072;-65
2022/03/12 00:54:56;;;;;;;14.23;6.80;;;9.80;70.30;;;;;;5048667;28;20441;-65
2022/03/12 00:57:21;;;;;;;9.32;6.10;;;9.80;70.20;;;;;;5038243;28;20477;-65
2022/03/12 00:59:47;;;;;;;12.23;5.22;;;9.80;70.80;;;;;;5035291;28;20044;-65
2022/03/12 01:02:15;;;;;;;9.98;6.07;;;9.70;69.50;;;;;;5037321;28;20047;-65
2022/03/12 01:04:41;;;;;;;8.77;5.80;;;9.80;70.80;;;;;;5045910;28;20385;-65
2022/03/12 01:07:08;;;;;;;10.90;5.88;;;9.70;70.70;;;;;;5028043;28;20408;-65
2022/03/12 01:09:34;;;;;;;10.13;7.03;;;9.70;70.00;;;;;;5036444;28;20040;-65
2022/03/12 01:12:00;;;;;;;10.43;5.47;;;9.70;70.30;;;;;;5044887;28;20385;-65
2022/03/12 01:14:25;;;;;;;8.40;5.68;;;9.70;70.20;;;;;;5041719;28;20068;-65
2022/03/12 01:16:55;;;;;;;13.73;6.80;;;9.70;73.30;;;;;;5027666;28;20034;-64
2022/03/12 01:19:21;;;;;;;10.32;6.03;;;9.70;70.40;;;;;;5039395;28;20047;-64
2022/03/12 01:21:46;;;;;;;11.63;5.95;;;9.70;71.20;;;;;;5047085;28;20555;-65
2022/03/12 01:24:12;;;;;;;12.15;7.20;;;9.60;70.80;;;;;;5035477;28;20051;-65
2022/03/12 01:26:39;;;;;;;9.63;5.85;;;9.60;71.10;;;;;;5038058;28;20048;-65
2022/03/12 01:29:06;;;;;;;10.07;6.25;;;9.60;71.80;;;;;;5047704;28;20049;-65
2022/03/12 01:31:31;;;;;;;14.18;6.18;;;9.50;71.80;;;;;;5037528;28;20073;-64
2022/03/12 01:33:57;;;;;;;10.88;5.47;;;9.50;71.00;;;;;;5047128;28;20088;-64
2022/03/12 01:36:22;;;;;;;9.05;5.65;;;9.40;71.90;;;;;;5049825;28;20061;-65
2022/03/12 01:38:53;;;;;;;12.32;6.78;;;9.50;71.90;;;;;;5043968;28;20067;-64
2022/03/12 01:41:22;;;;;;;8.63;5.88;;;9.40;70.70;;;;;;5039351;28;20041;-65
2022/03/12 01:43:49;;;;;;;11.32;6.15;;;9.40;71.30;;;;;;5033573;28;20088;-65
2022/03/12 01:46:15;;;;;;;9.30;5.95;;;9.50;71.20;;;;;;5041225;28;20124;-65
2022/03/12 01:48:46;;;;;;;8.98;6.03;;;9.40;70.10;;;;;;5042076;28;20572;-65
2022/03/12 01:51:12;;;;;;;10.57;6.15;;;9.40;71.30;;;;;;5046789;28;20041;-65
2022/03/12 01:53:38;;;;;;;9.38;5.53;;;9.30;71.30;;;;;;5050655;28;20045;-64
2022/03/12 01:56:04;;;;;;;11.07;5.70;;;9.30;71.10;;;;;;5047792;28;22712;-65
2022/03/12 01:58:29;;;;;;;12.00;6.97;;;9.30;71.80;;;;;;5032655;28;20077;-65
2022/03/12 02:00:57;;;;;;;10.18;6.15;;;9.30;71.40;;;;;;5031510;28;20092;-65
2022/03/12 02:03:29;;;;;;;12.68;6.53;;;9.30;72.40;;;;;;5038011;28;20394;-64
2022/03/12 02:05:55;;;;;;;8.98;5.93;;;9.20;70.90;;;;;;5049717;28;20076;-65
2022/03/12 02:08:21;;;;;;;11.20;5.93;;;9.20;70.40;;;;;;5031160;28;20049;-65
2022/03/12 02:10:48;;;;;;;13.48;6.70;;;9.20;72.00;;;;;;5044331;28;20366;-65
2022/03/12 02:13:14;;;;;;;10.43;5.38;;;9.20;72.00;;;;;;5046077;28;20044;-65
2022/03/12 02:15:41;;;;;;;9.20;6.32;;;9.20;73.50;;;;;;5032949;28;20444;-65
2022/03/12 02:18:07;;;;;;;10.88;6.22;;;9.30;72.30;;;;;;5031840;28;20371;-65
2022/03/12 02:20:33;;;;;;;10.25;6.72;;;9.10;71.80;;;;;;5031099;28;20037;-65
2022/03/12 02:22:59;;;;;;;9.80;5.65;;;9.20;71.70;;;;;;5036096;28;20128;-65
2022/03/12 02:25:33;;;;;;;12.20;6.05;;;9.20;72.60;;;;;;5037117;28;20850;-65
2022/03/12 02:28:02;;;;;;;15.38;6.43;;;9.20;71.00;;;;;;5050331;28;20136;-65
2022/03/12 02:30:37;;;;;;;10.02;6.22;;;9.20;71.50;;;;;;5047942;28;20044;-65
2022/03/12 02:33:04;;;;;;;13.15;6.07;;;9.20;72.30;;;;;;5038524;28;20052;-65
2022/03/12 02:35:34;;;;;;;9.88;6.22;;;9.10;72.90;;;;;;5030675;28;20088;-65
2022/03/12 02:38:01;;;;;;;10.60;6.43;;;9.20;72.10;;;;;;5040701;28;20111;-64
2022/03/12 02:40:27;;;;;;;9.32;5.45;;;9.20;73.10;;;;;;5039858;28;20037;-65
2022/03/12 02:42:55;;;;;;;10.32;5.90;;;9.20;71.70;;;;;;5037574;28;20122;-65
2022/03/12 02:45:22;;;;;;;8.23;5.65;;;9.20;73.00;;;;;;5046155;28;20105;-65
2022/03/12 02:47:48;;;;;;;9.75;5.88;;;9.20;72.00;;;;;;5045604;28;20561;-64
2022/03/12 02:50:14;;;;;;;9.18;6.30;;;9.20;70.90;;;;;;5028056;28;20064;-65
2022/03/12 02:52:41;;;;;;;13.70;6.18;;;9.20;71.70;;;;;;5045663;28;20441;-65
2022/03/12 02:55:13;;;;;;;10.63;6.40;;;9.30;72.80;;;;;;5042599;28;20052;-65
2022/03/12 02:57:44;;;;;;;10.50;5.97;;;9.20;70.20;;;;;;5030157;28;20041;-65
2022/03/12 03:00:11;;;;;;;12.32;6.85;;;9.20;71.60;;;;;;5039775;28;20051;-65
2022/03/12 03:02:40;;;;;;;8.93;6.00;;;9.10;71.80;;;;;;5048887;28;20048;-65
2022/03/12 03:05:16;;;;;;;9.15;5.68;;;9.20;72.40;;;;;;5040008;28;20095;-65
2022/03/12 03:07:45;;;;;;;8.52;5.85;;;9.10;71.60;;;;;;5039122;28;20095;-65
2022/03/12 03:10:19;;;;;;;10.30;6.55;;;9.20;72.60;;;;;;5046094;28;20048;-65
2022/03/12 03:12:45;;;;;;;16.60;6.80;;;9.20;71.50;;;;;;5050065;28;20107;-65
2022/03/12 03:15:11;;;;;;;8.80;5.72;;;9.10;73.10;;;;;;5049027;28;20480;-65
2022/03/12 03:17:40;;;;;;;8.93;6.57;;;9.10;71.90;;;;;;5038226;28;20432;-65
2022/03/12 03:20:06;;;;;;;13.45;7.03;;;9.10;71.50;;;;;;5039664;28;20492;-65
2022/03/12 03:22:31;;;;;;;9.82;7.10;;;9.20;71.90;;;;;;5041304;28;20096;-65
2022/03/12 03:24:57;;;;;;;10.07;7.32;;;9.20;72.50;;;;;;5032535;28;20049;-65
2022/03/12 03:27:23;;;;;;;10.23;6.97;;;9.10;71.90;;;;;;5035255;28;20052;-65
2022/03/12 03:29:48;;;;;;;8.27;5.80;;;9.20;73.20;;;;;;5031984;28;20417;-65
2022/03/12 03:32:14;;;;;;;11.65;6.75;;;9.30;73.00;;;;;;5043087;28;20040;-65
2022/03/12 03:34:40;;;;;;;13.57;7.32;;;9.30;73.70;;;;;;5034721;28;20064;-65
2022/03/12 03:37:06;;;;;;;12.23;6.85;;;9.20;73.60;;;;;;5039238;28;20111;-64
2022/03/12 03:39:31;;;;;;;11.93;6.75;;;9.20;73.20;;;;;;5036998;28;20041;-64
2022/03/12 03:41:57;;;;;;;15.30;6.88;;;9.20;71.90;;;;;;5045980;28;20106;-64
2022/03/12 03:44:28;;;;;;;12.63;6.47;;;9.30;76.10;;;;;;5043133;28;20525;-65
2022/03/12 03:46:54;;;;;;;10.52;6.72;;;9.30;73.80;;;;;;5032930;28;20037;-65
2022/03/12 03:49:20;;;;;;;12.35;6.85;;;9.40;72.90;;;;;;5048830;28;20060;-65
2022/03/12 03:51:47;;;;;;;10.55;7.00;;;9.30;73.00;;;;;;5048849;28;20057;-64
2022/03/12 03:54:14;;;;;;;12.18;6.32;;;9.30;73.00;;;;;;5043695;28;20439;-65
2022/03/12 03:56:41;;;;;;;13.13;6.80;;;9.30;73.90;;;;;;5037527;28;20036;-65
2022/03/12 03:59:07;;;;;;;13.50;7.03;;;9.20;75.30;;;;;;5046935;28;20055;-65
2022/03/12 04:01:35;;;;;;;11.95;7.28;;;9.20;75.30;;;;;;5030292;28;20038;-65
2022/03/12 04:04:01;;;;;;;12.90;6.72;;;9.20;77.10;;;;;;5037455;28;20056;-65
2022/03/12 04:06:26;;;;;;;11.23;6.90;;;9.20;76.20;;;;;;5047362;28;20048;-65
2022/03/12 04:08:54;;;;;;;10.63;6.70;;;9.20;77.30;;;;;;5035308;28;20405;-65
2022/03/12 04:11:22;;;;;;;12.52;6.88;;;9.00;80.10;;;;;;5037107;28;20098;-64
2022/03/12 04:13:49;;;;;;;11.15;7.35;;;9.00;80.30;;;;;;5048193;28;20141;-65
2022/03/12 04:16:17;;;;;;;12.70;7.03;;;9.00;79.70;;;;;;5041250;28;20033;-65
2022/03/12 04:18:45;;;;;;;15.40;7.35;;;9.00;81.60;;;;;;5040296;28;20049;-65
2022/03/12 04:21:13;;;;;;;11.10;7.65;;;9.00;81.60;;;;;;5045177;28;20047;-65
2022/03/12 04:23:39;;;;;;;12.73;8.95;;;8.90;82.00;;;;;;5032642;28;20048;-65
2022/03/12 04:26:05;;;;;;;10.18;7.70;;;8.90;85.90;;;;;;5043674;28;20045;-65
2022/03/12 04:28:32;;;;;;;13.40;7.90;;;8.90;85.30;;;;;;5032692;28;20053;-65
2022/03/12 04:31:02;;;;;;;13.52;7.28;;;8.80;85.30;;;;;;5028067;28;20501;-65
2022/03/12 04:33:29;;;;;;;12.80;7.72;;;8.80;86.20;;;;;;5033985;28;20065;-65
2022/03/12 04:35:56;;;;;;;11.98;8.13;;;8.70;86.50;;;;;;5047557;28;20048;-65
2022/03/12 04:38:23;;;;;;;12.65;8.35;;;8.70;86.60;;;;;;5047641;28;20041;-65
2022/03/12 04:40:49;;;;;;;13.90;9.70;;;8.70;87.40;;;;;;5030235;28;20128;-65
2022/03/12 04:43:14;;;;;;;11.10;8.43;;;8.60;88.40;;;;;;5041227;28;20171;-65
2022/03/12 04:45:45;;;;;;;12.45;8.27;;;8.60;90.30;;;;;;5033114;28;20072;-65
2022/03/12 04:48:15;;;;;;;15.85;9.38;;;8.60;90.60;;;;;;5027424;28;20395;-65
2022/03/12 04:50:41;;;;;;;12.10;8.60;;;8.50;91.00;;;;;;5032540;28;20077;-64
2022/03/12 04:53:08;;;;;;;11.88;9.27;;;8.50;91.30;;;;;;5032294;28;20129;-65
2022/03/12 04:55:36;;;;;;;12.88;8.40;;;8.60;91.50;;;;;;5047758;28;20611;-65
2022/03/12 04:58:06;;;;;;;14.95;9.25;;;8.40;91.60;;;;;;5034171;28;20045;-65
2022/03/12 05:00:36;;;;;;;15.88;7.90;;;8.50;91.60;;;;;;5040744;28;20037;-64
2022/03/12 05:03:09;;;;;;;13.20;9.35;;;8.40;91.70;;;;;;5027205;28;20045;-65
2022/03/12 05:05:40;;;;;;;12.15;8.95;;;8.40;93.00;;;;;;5044144;28;20048;-65
2022/03/12 05:08:07;;;;;;;16.88;9.25;;;8.40;92.40;;;;;;5035531;28;20576;-65
2022/03/12 05:10:33;;;;;;;13.93;8.98;;;8.30;93.20;;;;;;5039113;28;20072;-65
2022/03/12 05:13:00;;;;;;;11.27;7.80;;;8.30;93.70;;;;;;5045579;28;20088;-65
2022/03/12 05:15:37;;;;;;;17.35;9.65;;;8.30;94.10;;;;;;5045457;28;20464;-65
2022/03/12 05:18:12;;;;;;;13.05;8.82;;;8.20;94.30;;;;;;5040621;28;20037;-65
2022/03/12 05:20:43;;;;;;;14.60;8.95;;;8.20;94.70;;;;;;5028219;28;20053;-65
2022/03/12 05:23:09;;;;;;;11.88;8.27;;;8.20;95.60;;;;;;5042015;28;20336;-65
2022/03/12 05:25:42;;;;;;;15.95;9.23;;;8.20;95.40;;;;;;5047981;28;20127;-64
2022/03/12 05:28:15;;;;;;;13.88;9.40;;;8.20;95.30;;;;;;5028517;28;20079;-65
2022/03/12 05:30:45;;;;;;;13.60;9.27;;;8.20;95.80;;;;;;5040980;28;20084;-65
2022/03/12 05:33:12;;;;;;;11.98;8.63;;;8.20;94.90;;;;;;5033205;28;20053;-64
2022/03/12 05:35:41;;;;;;;12.43;7.78;;;8.10;94.80;;;;;;5037371;28;20080;-65
2022/03/12 05:38:08;;;;;;;10.38;7.90;;;8.10;95.50;;;;;;5032617;28;20045;-64
2022/03/12 05:40:37;;;;;;;13.18;8.82;;;8.10;95.60;;;;;;5040726;28;20052;-64
2022/03/12 05:43:03;;;;;;;10.93;8.98;;;8.10;94.80;;;;;;5045096;28;20045;-64
2022/03/12 05:45:28;;;;;;;10.50;8.55;;;8.20;95.00;;;;;;5034093;28;20060;-64
2022/03/12 05:47:54;;;;;;;15.45;8.48;;;8.10;94.90;;;;;;5030123;28;20180;-64
2022/03/12 05:50:21;;;;;;;12.68;8.93;;;8.10;94.20;;;;;;5033681;28;20099;-65
2022/03/12 05:52:48;;;;;;;14.80;9.18;;;8.10;94.10;;;;;;5042914;28;20060;-64
2022/03/12 05:55:19;;;;;;;11.45;8.18;;;8.10;94.80;;;;;;5026879;28;20110;-65
2022/03/12 05:57:45;;;;;;;17.85;8.77;;;8.20;93.70;;;;;;5027286;28;20045;-64
2022/03/12 06:00:13;;;;;;;11.00;8.27;;;8.10;94.20;;;;;;5043475;28;20048;-64
2022/03/12 06:02:47;;;;;;;12.95;7.68;;;8.10;94.30;;;;;;5043542;28;20563;-65
2022/03/12 06:05:14;;;;;;;17.83;8.10;;;8.10;94.50;;;;;;5044528;28;20049;-64
2022/03/12 06:07:43;;;;;;;9.50;7.28;;;8.10;94.30;;;;;;5032802;28;20034;-64
2022/03/12 06:10:09;;;;;;;12.50;8.02;;;8.00;94.10;;;;;;5027839;28;20037;-64
2022/03/12 06:12:35;;;;;;;10.32;8.20;;;8.00;93.40;;;;;;5042096;28;20083;-64
2022/03/12 06:15:04;;;;;;;25.88;9.57;;;7.80;93.70;;;;;;5044953;28;20110;-65
2022/03/12 06:17:30;;;;;;;12.20;9.25;;;7.90;93.90;;;;;;5033121;28;20090;-64
2022/03/12 06:19:56;;;;;;;17.20;8.20;;;7.80;94.40;;;;;;5035850;28;20045;-64
2022/03/12 06:22:21;;;;;;;10.85;7.78;;;7.80;93.50;;;;;;5041460;28;20051;-65
2022/03/12 06:24:49;;;;;;;14.10;9.25;;;7.70;93.80;;;;;;5035279;28;20044;-65
2022/03/12 06:27:17;;;;;;;19.10;8.63;;;7.60;94.20;;;;;;5042566;28;20464;-64
2022/03/12 06:29:43;;;;;;;15.50;9.65;;;7.60;93.70;;;;;;5039265;28;20431;-65
2022/03/12 06:32:11;;;;;;;16.83;8.88;;;7.70;94.10;;;;;;5037610;28;20041;-65
2022/03/12 06:34:37;;;;;;;11.20;8.18;;;7.60;94.50;;;;;;5030668;28;20041;-65
2022/03/12 06:37:04;;;;;;;14.63;8.07;;;7.70;93.50;;;;;;5037803;28;20531;-65
2022/03/12 06:39:29;;;;;;;11.55;8.52;;;7.60;94.20;;;;;;5040899;28;20049;-64
2022/03/12 06:41:58;;;;;;;14.43;9.10;;;7.60;93.30;;;;;;5044472;28;20408;-65
2022/03/12 06:44:27;;;;;;;13.40;9.45;;;7.60;94.70;;;;;;5031608;28;20057;-65
2022/03/12 06:46:53;;;;;;;14.23;9.10;;;7.60;93.90;;;;;;5044301;28;20120;-64
2022/03/12 06:49:19;;;;;;;16.08;7.68;;;7.60;94.10;;;;;;5048215;28;20135;-64
2022/03/12 06:51:44;;;;;;;13.07;8.82;;;7.60;93.70;;;;;;5038782;28;20115;-64
2022/03/12 06:54:10;;;;;;;11.40;8.00;;;7.70;93.40;;;;;;5036168;28;20049;-64
2022/03/12 06:56:39;;;;;;;15.07;8.32;;;7.70;93.60;;;;;;5027771;28;20041;-65
2022/03/12 06:59:05;;;;;;;11.95;7.82;;;7.70;94.80;;;;;;5030813;28;20080;-64
2022/03/12 07:01:30;;;;;;;12.60;9.02;;;7.80;93.10;;;;;;5040712;28;20065;-65
2022/03/12 07:03:56;;;;;;;13.63;7.88;;;7.80;93.80;;;;;;5036604;28;20045;-64
2022/03/12 07:06:21;;;;;;;17.42;10.93;;;7.90;93.80;;;;;;5038626;28;20439;-65
2022/03/12 07:08:48;;;;;;;15.50;9.45;;;7.90;93.40;;;;;;5041391;28;20051;-62
2022/03/12 07:11:14;;;;;;;16.73;10.02;;;7.90;93.60;;;;;;5033853;28;20386;-65
2022/03/12 07:13:40;;;;;;;15.18;9.95;;;8.00;94.30;;;;;;5044436;28;20041;-65
2022/03/12 07:16:06;;;;;;;15.70;9.10;;;8.00;93.70;;;;;;5029864;28;20444;-65
2022/03/12 07:18:31;;;;;;;14.38;8.75;;;8.10;94.10;;;;;;5050260;28;20052;-65
2022/03/12 07:20:57;;;;;;;14.93;9.18;;;8.10;93.90;;;;;;5049695;28;20037;-65
2022/03/12 07:23:22;;;;;;;17.38;9.50;;;8.10;94.00;;;;;;5042885;28;20077;-65
2022/03/12 07:25:48;;;;;;;12.23;8.85;;;8.20;94.20;;;;;;5029895;28;20072;-65
2022/03/12 07:28:17;;;;;;;12.43;9.00;;;8.30;94.10;;;;;;5046032;28;20045;-65
2022/03/12 07:30:43;;;;;;;15.80;9.10;;;8.40;93.40;;;;;;5045468;28;20060;-65
2022/03/12 07:33:09;;;;;;;10.68;7.50;;;8.40;93.40;;;;;;5036005;28;20053;-65
2022/03/12 07:35:35;;;;;;;15.88;9.63;;;8.50;93.70;;;;;;5035723;28;20037;-65
2022/03/12 07:38:01;;;;;;;19.75;11.77;;;8.50;93.10;;;;;;5037502;28;20043;-65
2022/03/12 07:40:26;;;;;;;15.95;10.52;;;8.60;94.10;;;;;;5047059;28;20056;-65
2022/03/12 07:42:52;;;;;;;14.80;10.23;;;8.60;93.80;;;;;;5046598;28;20044;-65
2022/03/12 07:45:19;;;;;;;17.50;9.27;;;8.60;93.60;;;;;;5043681;28;20052;-65
2022/03/12 07:47:47;;;;;;;13.18;8.95;;;8.70;93.70;;;;;;5037688;28;20098;-65
2022/03/12 07:50:13;;;;;;;16.85;9.82;;;8.80;93.40;;;;;;5049244;28;20053;-65
2022/03/12 07:52:40;;;;;;;16.73;8.52;;;8.90;94.00;;;;;;5044036;28;20095;-65
2022/03/12 07:55:09;;;;;;;13.80;8.85;;;9.00;93.90;;;;;;5045842;28;20045;-65
2022/03/12 07:57:36;;;;;;;15.95;9.88;;;9.10;93.60;;;;;;5046334;28;20068;-65
2022/03/12 08:00:03;;;;;;;15.07;10.07;;;9.20;93.30;;;;;;5044819;28;20040;-65
2022/03/12 08:02:29;;;;;;;14.77;8.93;;;9.50;92.90;;;;;;5039784;28;20045;-65
2022/03/12 08:04:54;;;;;;;13.10;8.90;;;10.20;92.40;;;;;;5032356;28;20044;-65
2022/03/12 08:07:20;;;;;;;16.08;10.05;;;10.80;92.20;;;;;;5036416;28;20100;-65
2022/03/12 08:09:46;;;;;;;11.20;8.60;;;11.30;90.70;;;;;;5028522;28;20038;-65
2022/03/12 08:12:13;;;;;;;14.63;9.73;;;11.50;90.50;;;;;;5028697;28;20049;-65
2022/03/12 08:14:39;;;;;;;18.10;10.70;;;11.40;91.00;;;;;;5028012;28;20049;-64
2022/03/12 08:17:05;;;;;;;15.50;9.73;;;11.20;90.90;;;;;;5040735;28;20037;-65
2022/03/12 08:19:32;;;;;;;12.65;9.30;;;11.00;91.60;;;;;;5045275;28;20059;-65
2022/03/12 08:21:59;;;;;;;14.00;9.00;;;11.00;92.10;;;;;;5028661;28;20063;-65
2022/03/12 08:24:25;;;;;;;15.07;9.35;;;11.00;92.10;;;;;;5040015;28;20454;-65
2022/03/12 08:26:51;;;;;;;13.48;9.23;;;11.00;92.40;;;;;;5028725;28;20104;-65
2022/03/12 08:29:21;;;;;;;16.85;10.30;;;11.10;92.70;;;;;;5028735;28;20038;-65
2022/03/12 08:31:47;;;;;;;22.70;10.05;;;11.20;92.50;;;;;;5028848;28;20046;-65
2022/03/12 08:34:13;;;;;;;15.63;9.85;;;11.20;91.70;;;;;;5027789;28;20509;-65
2022/03/12 08:36:39;;;;;;;16.13;10.02;;;11.20;92.70;;;;;;5048934;28;20049;-65
2022/03/12 08:39:05;;;;;;;16.55;10.43;;;11.20;92.20;;;;;;5049002;28;20419;-65
2022/03/12 08:41:34;;;;;;;13.95;9.43;;;11.20;92.40;;;;;;5042321;28;20034;-65
2022/03/12 08:44:00;;;;;;;20.65;9.80;;;11.20;92.50;;;;;;5033428;28;20489;-65
2022/03/12 08:46:26;;;;;;;17.02;10.02;;;11.30;92.60;;;;;;5028523;28;20434;-65
2022/03/12 08:48:51;;;;;;;19.08;9.60;;;11.30;93.10;;;;;;5034290;28;20116;-65
2022/03/12 08:51:17;;;;;;;13.02;10.32;;;11.40;93.60;;;;;;5033595;28;20052;-66
2022/03/12 08:53:43;;;;;;;11.20;9.48;;;11.30;93.10;;;;;;5037816;28;20547;-64
2022/03/12 08:56:08;;;;;;;19.58;9.90;;;11.30;93.40;;;;;;5029422;28;20049;-65
2022/03/12 08:58:34;;;;;;;16.55;10.82;;;11.30;93.70;;;;;;5038023;28;20061;-65
2022/03/12 09:01:01;;;;;;;15.80;10.70;;;11.40;93.70;;;;;;5038044;28;20049;-65
2022/03/12 09:03:27;;;;;;;17.42;10.55;;;11.40;93.90;;;;;;5037813;28;20059;-64
2022/03/12 09:05:53;;;;;;;15.77;9.93;;;11.30;94.80;;;;;;5048225;28;20493;-64
2022/03/12 09:08:19;;;;;;;13.15;9.63;;;11.30;95.70;;;;;;5034265;28;20064;-65
2022/03/12 09:10:45;;;;;;;14.65;11.30;;;11.30;95.80;;;;;;5032639;28;20046;-65
2022/03/12 09:13:13;;;;;;;17.65;10.88;;;11.30;96.10;;;;;;5042614;28;20594;-65
2022/03/12 09:15:40;;;;;;;19.73;11.65;;;11.30;96.80;;;;;;5027973;28;20045;-64
2022/03/12 09:18:07;;;;;;;13.07;10.48;;;11.30;97.10;;;;;;5036038;28;20049;-65
2022/03/12 09:20:46;;;;;;;13.18;10.00;;;11.30;97.70;;;;;;5048456;28;20041;-65
2022/03/12 09:23:14;;;;;;;16.42;9.60;;;11.30;98.20;;;;;;5037278;28;20049;-65
2022/03/12 09:25:39;;;;;;;15.45;10.88;;;11.40;98.60;;;;;;5028609;28;20091;-65
2022/03/12 09:28:05;;;;;;;16.35;10.25;;;11.50;98.50;;;;;;5027994;28;20135;-64
2022/03/12 09:30:30;;;;;;;21.23;10.50;;;11.50;98.50;;;;;;5026259;28;20136;-65
2022/03/12 09:32:56;;;;;;;15.73;9.50;;;12.00;98.60;;;;;;5035970;28;20053;-65
2022/03/12 09:35:22;;;;;;;14.13;9.15;;;12.40;98.00;;;;;;5027999;28;20045;-65
2022/03/12 09:37:48;;;;;;;13.55;9.93;;;12.90;97.40;;;;;;5027958;28;20045;-65
2022/03/12 09:40:17;;;;;;;13.10;9.45;;;13.20;96.20;;;;;;5037235;28;20049;-65
2022/03/12 09:42:43;;;;;;;13.98;9.32;;;13.40;96.00;;;;;;5047343;28;20041;-65
2022/03/12 09:45:09;;;;;;;16.88;10.00;;;13.60;95.50;;;;;;5047114;28;20049;-65
2022/03/12 09:47:35;;;;;;;12.05;8.43;;;13.60;95.40;;;;;;5047075;28;20049;-64
2022/03/12 09:50:01;;;;;;;12.63;8.95;;;13.50;95.20;;;;;;5050219;28;20071;-65
2022/03/12 09:52:26;;;;;;;13.30;10.05;;;13.60;95.40;;;;;;5050209;28;20155;-65
2022/03/12 09:54:52;;;;;;;11.10;8.65;;;13.70;95.30;;;;;;5051069;28;20131;-65
2022/03/12 09:57:18;;;;;;;17.98;8.57;;;13.60;95.80;;;;;;5031525;28;20046;-65
2022/03/12 09:59:43;;;;;;;13.60;8.27;;;13.80;95.50;;;;;;5039132;28;20040;-64
2022/03/12 10:02:09;;;;;;;15.05;8.80;;;13.80;95.50;;;;;;5050390;28;20151;-64
2022/03/12 10:04:34;;;;;;;14.20;8.38;;;14.00;95.70;;;;;;5040691;28;20045;-64
2022/03/12 10:07:00;;;;;;;12.80;8.63;;;14.20;95.70;;;;;;5038444;28;20129;-64
2022/03/12 10:09:26;;;;;;;10.45;7.85;;;14.20;95.60;;;;;;5031625;28;20046;-65
2022/03/12 10:11:52;;;;;;;10.75;8.43;;;14.20;95.40;;;;;;5038320;28;20108;-64
2022/03/12 10:14:18;;;;;;;11.43;8.15;;;14.00;95.80;;;;;;5035096;28;20053;-65
2022/03/12 10:16:44;;;;;;;13.50;8.25;;;13.90;96.00;;;;;;5031876;28;20042;-65
2022/03/12 10:19:10;;;;;;;11.55;8.55;;;14.10;96.60;;;;;;5030865;28;20546;-65
2022/03/12 10:21:42;;;;;;;10.43;7.28;;;14.00;96.90;;;;;;5032853;28;20037;-64
2022/03/12 10:24:08;;;;;;;13.95;7.30;;;13.90;97.20;;;;;;5034340;28;20061;-64
2022/03/12 10:26:34;;;;;;;10.45;7.30;;;13.80;97.20;;;;;;5031036;28;20052;-64
2022/03/12 10:28:59;;;;;;;8.68;6.78;;;13.80;97.50;;;;;;5031777;28;20046;-65
2022/03/12 10:31:28;;;;;;;10.55;7.50;;;13.80;98.30;;;;;;5030603;28;20047;-64
2022/03/12 10:34:23;;;;;;;14.68;7.70;;;13.90;98.30;;;;;;5036929;28;20091;-64
2022/03/12 10:36:54;;;;;;;18.85;6.60;;;13.90;98.30;;;;;;5051631;28;20063;-64
2022/03/12 10:39:34;;;;;;;8.73;6.13;;;13.80;98.40;;;;;;5044963;28;20045;-64
2022/03/12 10:42:07;;;;;;;9.73;6.40;;;13.80;98.50;;;;;;5037641;28;20048;-65
2022/03/12 10:44:39;;;;;;;9.00;6.13;;;13.70;99.00;;;;;;5050285;28;20107;-65
2022/03/12 10:47:22;;;;;;;10.57;5.82;;;13.70;99.00;;;;;;5049527;28;20286;-65
2022/03/12 10:50:04;;;;;;;14.43;7.00;;;13.80;99.30;;;;;;5035932;28;20048;-64
2022/03/12 10:52:30;;;;;;;7.80;5.65;;;13.90;99.00;;;;;;5040665;28;20052;-65
2022/03/12 10:54:56;;;;;;;7.90;5.82;;;14.00;99.30;;;;;;5039121;28;20064;-64
2022/03/12 10:57:22;;;;;;;11.05;5.43;;;14.00;99.00;;;;;;5050446;28;20370;-64
2022/03/12 10:59:53;;;;;;;12.35;4.57;;;13.90;98.80;;;;;;5033298;28;20049;-64
2022/03/12 11:02:19;;;;;;;6.43;4.30;;;13.90;98.60;;;;;;5028543;28;20107;-64
2022/03/12 11:04:44;;;;;;;8.65;4.15;;;14.00;98.40;;;;;;5045171;28;20076;-64
2022/03/12 11:07:28;;;;;;;12.55;4.35;;;14.10;97.70;;;;;;5030823;28;20083;-65
2022/03/12 11:09:55;;;;;;;11.32;4.75;;;14.10;97.60;;;;;;5030623;28;20102;-64
2022/03/12 11:12:30;;;;;;;8.27;4.05;;;14.10;97.10;;;;;;5030043;28;20049;-65
2022/03/12 11:15:15;;;;;;;5.95;4.18;;;14.20;97.70;;;;;;5031092;28;20045;-64
2022/03/12 11:17:49;;;;;;;8.35;3.75;;;14.30;98.20;;;;;;5041245;28;20044;-64
2022/03/12 11:20:35;;;;;;;;;;;14.30;97.00;;;;;;5043259;28;20073;-65
2022/03/12 11:23:12;;;;;;;6.70;3.88;;;14.30;97.40;;;;;;5037215;28;19925;-64
2022/03/12 11:26:04;;;;;;;8.80;4.10;;;14.50;97.70;;;;;;5046666;28;20056;-64
2022/03/12 11:28:30;;;;;;;7.63;3.60;;;14.50;97.10;;;;;;5046022;28;20083;-64
2022/03/12 11:30:56;;;;;;;5.13;3.20;;;14.30;96.30;;;;;;5049786;28;20044;-65
2022/03/12 11:33:25;;;;;;;6.97;3.47;;;14.30;96.10;;;;;;5033472;28;20121;-64
2022/03/12 11:36:01;;;;;;;5.13;3.80;;;14.10;96.50;;;;;;5046291;28;20041;-64
2022/03/12 11:38:28;;;;;;;8.27;3.72;;;14.20;96.50;;;;;;5049596;28;20107;-65
2022/03/12 11:41:04;;;;;;;9.38;4.10;;;14.20;96.30;;;;;;5044239;28;20076;-64
2022/03/12 11:43:36;;;;;;;9.90;4.07;;;14.10;96.90;;;;;;5029385;28;20068;-64
2022/03/12 11:46:04;;;;;;;10.83;4.40;;;14.20;96.70;;;;;;5029688;28;20045;-64
2022/03/12 11:48:38;;;;;;;10.68;5.30;;;14.10;97.00;;;;;;5029902;28;20049;-64
2022/03/12 11:51:20;;;;;;;8.45;3.42;;;14.10;97.70;;;;;;5039484;28;20049;-65
2022/03/12 11:53:45;;;;;;;5.97;3.50;;;14.10;96.80;;;;;;5049064;28;20133;-64
2022/03/12 11:56:12;;;;;;;8.18;4.15;;;14.00;97.00;;;;;;5044435;28;20120;-64
2022/03/12 11:58:38;;;;;;;5.72;3.40;;;14.10;97.50;;;;;;5028406;28;20045;-64
2022/03/12 12:01:05;;;;;;;11.50;3.88;;;13.90;96.50;;;;;;5035713;28;20492;-64
2022/03/12 12:03:31;;;;;;;14.00;3.83;;;14.10;96.60;;;;;;5044831;28;20040;-65
2022/03/12 12:05:56;;;;;;;5.90;3.75;;;14.00;96.40;;;;;;5033220;28;20071;-64
2022/03/12 12:08:23;;;;;;;7.70;4.93;;;14.10;96.90;;;;;;5028997;28;20538;-65
2022/03/12 12:10:50;;;;;;;9.23;4.80;;;14.10;97.50;;;;;;5029686;28;20083;-64
2022/03/12 12:13:18;;;;;;;10.95;4.63;;;14.30;97.40;;;;;;5035244;28;20458;-64
2022/03/12 12:15:46;;;;;;;8.73;4.93;;;14.30;97.70;;;;;;5034228;28;20082;-65
2022/03/12 12:18:13;;;;;;;10.32;5.07;;;14.50;97.10;;;;;;5036167;28;20041;-65
2022/03/12 12:20:40;;;;;;;7.78;4.05;;;14.60;96.80;;;;;;5029572;28;20069;-65
2022/03/12 12:23:12;;;;;;;8.40;4.57;;;14.90;96.50;;;;;;5040800;28;20084;-65
2022/03/12 12:25:38;;;;;;;7.57;3.75;;;14.90;96.10;;;;;;5033991;28;20132;-64
2022/03/12 12:28:23;;;;;;;8.93;4.57;;;15.00;95.80;;;;;;5029091;28;20061;-64
2022/03/12 12:30:53;;;;;;;9.60;4.78;;;15.10;95.50;;;;;;5047460;28;20135;-64
2022/03/12 12:33:24;;;;;;;9.40;4.72;;;15.10;95.10;;;;;;5040006;28;20042;-64
2022/03/12 12:35:52;;;;;;;10.10;4.65;;;15.30;95.40;;;;;;5038110;28;20041;-65
2022/03/12 12:38:21;;;;;;;9.10;3.97;;;15.20;95.00;;;;;;5048093;28;20552;-65
2022/03/12 12:40:52;;;;;;;7.82;4.82;;;15.20;95.30;;;;;;5035165;28;20049;-65
2022/03/12 12:43:20;;;;;;;6.38;4.43;;;15.50;95.20;;;;;;5028794;28;20044;-65
2022/03/12 12:45:45;;;;;;;8.20;4.78;;;15.70;95.40;;;;;;5027913;28;20049;-65